Time;durP1;ratioP1;P1;durP2;ratioP2;P2;SDS_P1;SDS_P2;PMS_P1;PMS_P2;Temp;Humidity;BMP_temperature;BMP_pressure;BME280_temperature;BME280_humidity;BME280_pressure;Samples;Min_cycle;Max_cycle;Signal;HPM_P1;HPM_P2
2023/01/17 00:01:29;;;;;;;7.82;2.40;;;;;;;3.13;100.00;98273.88;5031058;28;20029;-70
2023/01/17 00:12:06;;;;;;;4.97;1.75;;;;;;;3.02;100.00;98291.16;5030505;28;20098;-71
2023/01/17 00:14:32;;;;;;;4.05;1.35;;;;;;;2.89;100.00;98295.69;5030804;28;20037;-71
2023/01/17 00:16:59;;;;;;;5.07;1.73;;;;;;;2.84;100.00;98298.94;5013128;28;20084;-71
2023/01/17 01:34:02;;;;;;;0.50;0.50;;;;;;;1.37;100.00;98449.88;5029902;28;21016;-69
2023/01/17 01:36:27;;;;;;;1.90;0.52;;;;;;;1.40;100.00;98452.13;5011768;28;20064;-69
2023/01/17 01:38:53;;;;;;;0.40;0.40;;;;;;;1.39;100.00;98456.56;5029642;28;20029;-68
2023/01/17 01:41:19;;;;;;;0.68;0.45;;;;;;;1.43;100.00;98464.84;5029553;28;20419;-69
2023/01/17 01:43:50;;;;;;;1.90;0.63;;;;;;;1.43;100.00;98470.09;5011800;28;20584;-69
2023/01/17 01:46:17;;;;;;;2.03;1.00;;;;;;;1.42;100.00;98471.91;5029647;28;20072;-69
2023/01/17 01:48:57;;;;;;;3.28;1.10;;;;;;;1.41;100.00;98472.09;5029342;28;20035;-69
2023/01/17 01:51:28;;;;;;;1.35;1.13;;;;;;;1.41;100.00;98474.72;5011588;28;20036;-69
2023/01/17 01:54:00;;;;;;;1.77;1.15;;;;;;;1.42;100.00;98492.13;5029363;28;20041;-69
2023/01/17 01:56:27;;;;;;;4.70;0.93;;;;;;;1.40;100.00;98484.44;5029476;28;20574;-69
2023/01/17 01:58:54;;;;;;;1.63;0.68;;;;;;;1.48;100.00;98492.13;5029392;28;20060;-69
2023/01/17 02:01:20;;;;;;;2.88;0.98;;;;;;;1.48;100.00;98496.59;5029382;28;20052;-69
2023/01/17 02:03:46;;;;;;;1.85;1.10;;;;;;;1.48;100.00;98500.00;5029375;28;20366;-69
2023/01/17 02:06:35;;;;;;;2.40;1.45;;;;;;;1.45;100.00;98502.22;5029338;28;20045;-69
2023/01/17 02:09:04;;;;;;;1.67;1.10;;;;;;;1.39;100.00;98489.88;5029055;28;20030;-69
2023/01/17 02:11:32;;;;;;;2.97;1.35;;;;;;;1.31;100.00;98506.63;5029345;28;20041;-69
2023/01/17 02:13:57;;;;;;;2.08;1.20;;;;;;;1.25;100.00;98515.25;5029381;28;20507;-69
2023/01/17 02:16:26;;;;;;;3.90;1.60;;;;;;;1.21;100.00;98514.03;5029235;28;20033;-69
2023/01/17 02:18:54;;;;;;;1.80;1.38;;;;;;;1.19;100.00;98516.03;5029245;28;20147;-69
2023/01/17 02:21:28;;;;;;;1.35;1.25;;;;;;;1.17;100.00;98518.03;5029065;28;20072;-69
2023/01/17 02:24:12;;;;;;;2.60;1.20;;;;;;;1.15;100.00;98527.91;5029055;28;20053;-69
2023/01/17 02:26:40;;;;;;;1.50;1.40;;;;;;;1.17;100.00;98529.34;5029187;28;20479;-69
2023/01/17 02:29:30;;;;;;;5.30;2.10;;;;;;;1.23;100.00;98530.38;5029226;28;20029;-69
2023/01/17 02:32:15;;;;;;;2.10;1.80;;;;;;;1.27;100.00;98526.38;5029098;28;20469;-69
2023/01/17 02:35:00;;;;;;;3.97;2.50;;;;;;;1.30;100.00;98532.03;5029226;28;20037;-71
2023/01/17 02:37:29;;;;;;;4.40;2.40;;;;;;;1.37;100.00;98536.53;5032510;28;20060;-71
2023/01/17 02:40:13;;;;;;;3.45;2.40;;;;;;;1.39;100.00;98530.09;5032664;28;20064;-71
2023/01/17 02:42:44;;;;;;;5.32;3.30;;;;;;;1.42;100.00;98531.53;5032466;28;20088;-71
2023/01/17 02:45:15;;;;;;;6.68;3.20;;;;;;;1.43;100.00;98522.63;5031992;28;20068;-71
2023/01/17 02:47:40;;;;;;;4.90;3.35;;;;;;;1.46;100.00;98524.84;5032168;28;20030;-71
2023/01/17 02:50:13;;;;;;;3.90;2.78;;;;;;;1.39;100.00;98522.22;5031875;28;20099;-71
2023/01/17 02:53:07;;;;;;;6.25;2.55;;;;;;;1.35;100.00;98518.34;5032449;28;20056;-71
2023/01/17 02:55:46;;;;;;;3.90;2.53;;;;;;;1.26;100.00;98525.56;5002428;28;20061;-71
2023/01/17 02:58:18;;;;;;;7.05;2.78;;;;;;;1.23;100.00;98525.13;5031962;28;20044;-71
2023/01/17 03:00:56;;;;;;;6.20;2.42;;;;;;;1.19;100.00;98527.34;5032039;28;20040;-71
2023/01/17 03:03:32;;;;;;;4.93;2.45;;;;;;;1.12;100.00;98523.06;5031777;28;20044;-71
2023/01/17 03:06:11;;;;;;;3.22;1.70;;;;;;;1.14;100.00;98537.63;5031847;28;20469;-71
2023/01/17 03:08:42;;;;;;;3.92;1.70;;;;;;;1.14;100.00;98535.00;5031783;28;20108;-71
2023/01/17 03:11:09;;;;;;;1.60;1.50;;;;;;;1.13;100.00;98535.16;5032019;28;20073;-71
2023/01/17 03:13:35;;;;;;;1.63;1.50;;;;;;;1.09;100.00;98532.94;5031772;28;20034;-71
2023/01/17 03:16:05;;;;;;;4.78;1.90;;;;;;;1.09;100.00;98540.81;5031895;28;20048;-71
2023/01/17 03:18:31;;;;;;;1.50;1.40;;;;;;;1.00;100.00;98539.34;5031877;28;20029;-71
2023/01/17 03:20:56;;;;;;;1.23;1.13;;;;;;;0.97;100.00;98544.16;5031851;28;20049;-71
2023/01/17 03:23:22;;;;;;;1.25;1.15;;;;;;;0.94;100.00;98557.66;5031744;28;20033;-71
2023/01/17 03:25:47;;;;;;;5.10;2.05;;;;;;;0.86;100.00;98563.88;5031797;28;20035;-71
2023/01/17 03:28:12;;;;;;;2.17;1.23;;;;;;;0.78;100.00;98571.88;5031693;28;20029;-71
2023/01/17 03:30:38;;;;;;;1.75;1.52;;;;;;;0.65;100.00;98564.72;5031608;28;20049;-71
2023/01/17 03:33:03;;;;;;;3.42;2.13;;;;;;;0.65;100.00;98570.78;5031378;28;20025;-71
2023/01/17 03:35:28;;;;;;;3.42;1.30;;;;;;;0.61;100.00;98571.34;5031336;28;20084;-71
2023/01/17 03:37:54;;;;;;;2.28;1.27;;;;;;;0.54;100.00;98573.91;5031151;28;20346;-71
2023/01/17 03:40:19;;;;;;;2.80;1.25;;;;;;;0.47;100.00;98580.88;5031056;28;20055;-71
2023/01/17 03:42:45;;;;;;;2.75;1.08;;;;;;;0.46;100.00;98573.22;5013212;28;20029;-71
2023/01/17 03:45:10;;;;;;;2.35;1.10;;;;;;;0.42;100.00;98575.44;5031040;28;20029;-71
2023/01/17 03:47:36;;;;;;;1.50;0.93;;;;;;;0.37;100.00;98567.31;5029774;28;20647;-71
2023/01/17 03:50:02;;;;;;;2.60;0.75;;;;;;;0.39;100.00;98573.16;5030890;28;20063;-71
2023/01/17 03:52:27;;;;;;;2.15;0.90;;;;;;;0.34;100.00;98573.75;5030815;28;20033;-71
2023/01/17 03:54:53;;;;;;;2.78;1.92;;;;;;;0.35;100.00;98580.59;5030859;28;20508;-71
2023/01/17 03:57:18;;;;;;;5.15;1.48;;;;;;;0.33;100.00;98584.41;5030557;28;20373;-71
2023/01/17 03:59:44;;;;;;;0.95;0.70;;;;;;;0.33;100.00;98589.63;5030654;28;20120;-71
2023/01/17 04:02:10;;;;;;;0.88;0.70;;;;;;;0.30;100.00;98587.41;5030865;28;20033;-71
2023/01/17 04:04:35;;;;;;;1.27;0.88;;;;;;;0.30;100.00;98585.59;5030689;28;20040;-71
2023/01/17 04:07:00;;;;;;;0.70;0.70;;;;;;;0.30;100.00;98580.34;5030710;28;20063;-71
2023/01/17 04:09:26;;;;;;;2.70;1.33;;;;;;;0.32;100.00;98588.84;5030728;28;20132;-71
2023/01/17 04:11:52;;;;;;;3.83;1.48;;;;;;;0.28;100.00;98584.94;5030911;28;20134;-71
2023/01/17 04:14:17;;;;;;;1.70;1.15;;;;;;;0.26;100.00;98591.38;5030728;28;20048;-71
2023/01/17 04:16:43;;;;;;;2.20;1.20;;;;;;;0.26;100.00;98594.81;5030867;28;20090;-71
2023/01/17 04:19:12;;;;;;;0.95;0.63;;;;;;;0.29;100.00;98599.69;5030901;28;20441;-71
2023/01/17 04:21:37;;;;;;;1.70;0.95;;;;;;;0.36;100.00;98595.31;5012726;28;20057;-71
2023/01/17 04:24:03;;;;;;;3.85;1.30;;;;;;;0.43;100.00;98593.56;5012785;28;20036;-71
2023/01/17 04:26:28;;;;;;;5.35;1.35;;;;;;;0.42;100.00;98591.97;5012852;28;20037;-71
2023/01/17 04:28:53;;;;;;;3.38;1.00;;;;;;;0.39;100.00;98594.97;5030482;28;20035;-71
2023/01/17 04:31:19;;;;;;;2.70;1.00;;;;;;;0.31;100.00;98584.56;5012793;28;20040;-71
2023/01/17 04:33:44;;;;;;;3.90;1.27;;;;;;;0.15;100.00;98566.47;5030537;28;20044;-71
2023/01/17 04:36:10;;;;;;;1.58;1.05;;;;;;;0.17;100.00;98586.25;5030533;28;20037;-71
2023/01/17 04:38:35;;;;;;;3.78;1.85;;;;;;;0.18;100.00;98589.69;5030497;28;20056;-71
2023/01/17 04:41:00;;;;;;;2.45;1.45;;;;;;;0.08;100.00;98579.53;5030335;28;20134;-71
2023/01/17 04:43:26;;;;;;;2.50;1.17;;;;;;;0.09;100.00;98588.19;5030338;28;20021;-71
2023/01/17 04:45:55;;;;;;;3.47;1.17;;;;;;;0.04;100.00;98591.34;5030119;28;20423;-71
2023/01/17 04:48:21;;;;;;;4.40;1.88;;;;;;;0.03;100.00;98596.75;5030357;28;20044;-71
2023/01/17 04:50:46;;;;;;;4.13;1.30;;;;;;;-0.01;100.00;98591.91;5012491;28;20025;-71
2023/01/17 04:53:11;;;;;;;4.93;1.52;;;;;;;-0.10;100.00;98589.59;5030172;28;20120;-71
2023/01/17 04:55:37;;;;;;;5.90;2.53;;;;;;;-0.14;100.00;98583.88;5012433;28;20029;-71
2023/01/17 04:58:02;;;;;;;3.60;1.33;;;;;;;-0.14;100.00;98594.38;5029807;28;20026;-71
2023/01/17 05:00:28;;;;;;;4.43;2.03;;;;;;;-0.23;100.00;98582.38;5030039;28;20068;-71
2023/01/17 05:02:54;;;;;;;5.03;1.88;;;;;;;-0.27;100.00;98579.31;5030088;28;20025;-71
2023/01/17 05:05:19;;;;;;;4.80;1.50;;;;;;;-0.20;100.00;98597.72;5029876;28;20040;-71
2023/01/17 05:07:52;;;;;;;5.00;2.00;;;;;;;-0.23;100.00;98593.66;5029976;28;20116;-71
2023/01/17 05:10:17;;;;;;;4.78;1.50;;;;;;;-0.23;100.00;98585.00;5029829;28;20029;-71
2023/01/17 05:12:43;;;;;;;4.45;1.80;;;;;;;-0.30;100.00;98584.09;5029669;28;20041;-71
2023/01/17 05:15:09;;;;;;;4.93;2.10;;;;;;;-0.24;100.00;98601.69;5011974;28;20071;-71
2023/01/17 05:17:34;;;;;;;4.90;2.22;;;;;;;-0.25;100.00;98603.50;5029927;28;20120;-71
2023/01/17 05:19:59;;;;;;;4.80;2.20;;;;;;;-0.25;100.00;98602.69;5029602;28;20036;-71
2023/01/17 05:22:25;;;;;;;6.50;1.52;;;;;;;-0.29;100.00;98597.03;5029636;28;20091;-71
2023/01/17 05:24:50;;;;;;;6.78;2.03;;;;;;;-0.25;100.00;98605.31;5029658;28;20036;-71
2023/01/17 05:27:15;;;;;;;10.02;4.03;;;;;;;-0.28;100.00;98598.63;5029677;28;20044;-71
2023/01/17 05:29:41;;;;;;;4.35;2.38;;;;;;;-0.30;100.00;98600.63;5029625;28;20124;-71
2023/01/17 05:32:06;;;;;;;10.25;4.25;;;;;;;-0.32;100.00;98605.22;5029491;28;20030;-71
2023/01/17 05:34:32;;;;;;;8.93;3.65;;;;;;;-0.36;100.00;98600.56;5029630;28;20037;-71
2023/01/17 05:36:57;;;;;;;8.00;3.95;;;;;;;-0.32;100.00;98613.09;5029674;28;20108;-71
2023/01/17 05:39:23;;;;;;;7.75;3.10;;;;;;;-0.35;100.00;98610.03;5029515;28;20037;-70
2023/01/17 05:41:48;;;;;;;8.25;2.95;;;;;;;-0.34;100.00;98607.25;5011806;28;20029;-71
2023/01/17 05:44:14;;;;;;;8.18;3.75;;;;;;;-0.36;100.00;98605.78;5029463;28;20033;-71
2023/01/17 05:46:40;;;;;;;9.15;4.00;;;;;;;-0.37;100.00;98617.25;5029410;28;20037;-71
2023/01/17 05:49:05;;;;;;;11.07;3.92;;;;;;;-0.38;100.00;98618.25;5029450;28;20492;-71
2023/01/17 05:51:31;;;;;;;19.63;4.80;;;;;;;-0.38;100.00;98620.88;5029294;28;20041;-71
2023/01/17 05:53:56;;;;;;;8.15;3.40;;;;;;;-0.40;100.00;98635.94;5029533;28;20079;-71
2023/01/17 05:56:22;;;;;;;11.70;4.55;;;;;;;-0.42;100.00;98630.06;5029446;28;20548;-71
2023/01/17 05:58:47;;;;;;;11.35;3.42;;;;;;;-0.45;100.00;98626.00;5029257;28;20087;-71
2023/01/17 06:01:12;;;;;;;12.43;4.47;;;;;;;-0.47;100.00;98633.25;5029299;28;20040;-71
2023/01/17 06:03:38;;;;;;;11.88;5.15;;;;;;;-0.48;100.00;98626.38;5029376;28;20056;-71
2023/01/17 06:06:03;;;;;;;14.57;5.07;;;;;;;-0.50;100.00;98630.97;5028806;28;20065;-71
2023/01/17 06:08:29;;;;;;;12.75;5.50;;;;;;;-0.51;100.00;98639.81;5028857;28;20060;-71
2023/01/17 06:10:57;;;;;;;12.30;5.07;;;;;;;-0.53;100.00;98631.34;5031060;28;20972;-70
2023/01/17 06:13:22;;;;;;;13.15;6.38;;;;;;;-0.56;100.00;98629.06;5033031;28;20104;-70
2023/01/17 06:15:47;;;;;;;11.27;4.93;;;;;;;-0.59;100.00;98629.44;5033104;28;20125;-70
2023/01/17 06:18:16;;;;;;;15.48;6.35;;;;;;;-0.58;100.00;98637.09;5015361;28;20480;-68
2023/01/17 06:20:42;;;;;;;15.35;5.45;;;;;;;-0.58;100.00;98638.91;5032882;28;20140;-68
2023/01/17 06:23:11;;;;;;;12.70;5.65;;;;;;;-0.62;100.00;98646.31;5032981;28;20116;-68
2023/01/17 06:25:38;;;;;;;13.23;5.55;;;;;;;-0.62;100.00;98646.31;5032749;28;20030;-68
2023/01/17 06:28:05;;;;;;;8.95;4.53;;;;;;;-0.65;100.00;98645.88;5033014;28;20025;-68
2023/01/17 06:30:30;;;;;;;14.75;5.60;;;;;;;-0.68;100.00;98642.63;5032757;28;20654;-68
2023/01/17 06:32:56;;;;;;;12.57;5.50;;;;;;;-0.73;100.00;98631.88;5032851;28;20083;-68
2023/01/17 06:35:22;;;;;;;12.00;5.00;;;;;;;-0.71;100.00;98640.38;5032239;28;20508;-68
2023/01/17 06:37:54;;;;;;;13.07;5.32;;;;;;;-0.75;100.00;98646.13;5031925;28;20033;-68
2023/01/17 06:40:20;;;;;;;19.83;6.30;;;;;;;-0.76;100.00;98645.31;5031947;28;20112;-68
2023/01/17 06:42:45;;;;;;;13.70;5.60;;;;;;;-0.80;100.00;98638.81;5031890;28;20034;-68
2023/01/17 06:45:10;;;;;;;13.20;6.50;;;;;;;-0.78;100.00;98651.72;5032061;28;20052;-68
2023/01/17 06:47:40;;;;;;;15.05;5.47;;;;;;;-0.79;100.00;98656.13;5031951;28;20037;-68
2023/01/17 06:50:12;;;;;;;13.10;5.25;;;;;;;-0.82;100.00;98650.44;5031848;28;20033;-69
2023/01/17 06:52:38;;;;;;;12.75;5.95;;;;;;;-0.83;100.00;98648.81;5031718;28;20025;-68
2023/01/17 06:55:04;;;;;;;17.10;6.57;;;;;;;-0.85;100.00;98656.03;5031830;28;20503;-68
2023/01/17 06:57:30;;;;;;;17.67;7.38;;;;;;;-0.90;100.00;98648.69;5031778;28;20041;-68
2023/01/17 06:59:55;;;;;;;19.45;7.38;;;;;;;-0.95;100.00;98648.41;5031876;28;20108;-68
2023/01/17 07:02:21;;;;;;;16.17;7.45;;;;;;;-0.91;100.00;98660.16;5031714;28;20029;-68
2023/01/17 07:04:46;;;;;;;16.65;6.97;;;;;;;-0.93;100.00;98656.91;5031679;28;20040;-68
2023/01/17 07:07:11;;;;;;;16.27;7.55;;;;;;;-0.94;100.00;98669.19;5031803;28;20033;-68
2023/01/17 07:09:37;;;;;;;14.35;7.57;;;;;;;-0.97;100.00;98664.31;5031387;28;20455;-69
2023/01/17 07:12:03;;;;;;;16.33;6.00;;;;;;;-0.95;100.00;98661.50;5031623;28;20034;-68
2023/01/17 07:14:28;;;;;;;15.18;7.63;;;;;;;-0.97;100.00;98663.47;5031895;28;20025;-68
2023/01/17 07:16:54;;;;;;;16.45;6.97;;;;;;;-0.97;100.00;98666.09;5031921;28;20649;-68
2023/01/17 07:19:20;;;;;;;16.50;7.95;;;;;;;-1.01;100.00;98664.84;5031546;28;20033;-68
2023/01/17 07:21:48;;;;;;;15.20;7.07;;;;;;;-1.02;100.00;98664.03;5013298;28;20107;-68
2023/01/17 07:24:14;;;;;;;15.77;6.57;;;;;;;-1.03;100.00;98669.41;5031621;28;20128;-68
2023/01/17 07:26:39;;;;;;;18.58;8.27;;;;;;;-1.05;100.00;98666.97;5031750;28;20140;-68
2023/01/17 07:29:05;;;;;;;21.45;9.55;;;;;;;-1.05;100.00;98671.41;5014041;28;20439;-68
2023/01/17 07:31:34;;;;;;;18.92;8.20;;;;;;;-1.05;100.00;98669.59;5031526;28;20041;-68
2023/01/17 07:33:59;;;;;;;14.95;7.65;;;;;;;-1.04;100.00;98675.66;5031642;28;20026;-68
2023/01/17 07:36:25;;;;;;;19.20;8.88;;;;;;;-1.05;100.00;98676.63;5031249;28;20029;-68
2023/01/17 07:38:50;;;;;;;14.52;7.50;;;;;;;-1.06;100.00;98675.81;5030946;28;20025;-69
2023/01/17 07:41:16;;;;;;;18.13;8.35;;;;;;;-1.07;100.00;98674.19;5031206;28;20116;-68
2023/01/17 07:43:41;;;;;;;17.63;8.50;;;;;;;-1.07;100.00;98678.59;5031038;28;20369;-68
2023/01/17 07:46:07;;;;;;;16.90;8.38;;;;;;;-1.07;100.00;98673.38;5030996;28;20139;-68
2023/01/17 07:48:33;;;;;;;19.35;7.65;;;;;;;-1.10;100.00;98674.56;5030976;28;20396;-68
2023/01/17 07:50:58;;;;;;;14.82;6.97;;;;;;;-1.08;100.00;98684.81;5030871;28;20029;-68
2023/01/17 07:53:25;;;;;;;16.70;7.68;;;;;;;-1.07;100.00;98695.13;5031215;28;20029;-68
2023/01/17 07:55:51;;;;;;;14.45;7.60;;;;;;;-1.06;100.00;98691.50;5031132;28;20036;-68
2023/01/17 07:58:17;;;;;;;17.02;8.63;;;;;;;-1.10;100.00;98682.41;5031262;28;20485;-68
2023/01/17 08:00:45;;;;;;;19.77;10.38;;;;;;;-1.04;100.00;98686.94;5031050;28;20492;-68
2023/01/17 08:03:15;;;;;;;19.98;9.13;;;;;;;-1.02;100.00;98686.72;5030950;28;20030;-68
2023/01/17 08:05:42;;;;;;;30.10;8.27;;;;;;;-1.02;100.00;98687.56;5030914;28;20492;-68
2023/01/17 08:08:08;;;;;;;18.40;7.95;;;;;;;-0.98;100.00;98688.81;5031066;28;20030;-68
2023/01/17 08:10:33;;;;;;;18.58;8.15;;;;;;;-0.95;100.00;98688.47;5030872;28;20037;-68
2023/01/17 08:12:59;;;;;;;24.02;8.20;;;;;;;-0.93;100.00;98691.72;5030859;28;20029;-68
2023/01/17 08:15:25;;;;;;;19.73;7.68;;;;;;;-0.86;100.00;98691.00;5031192;28;20037;-68
2023/01/17 08:17:56;;;;;;;18.80;8.57;;;;;;;-0.83;100.00;98693.31;5030758;28;20029;-68
2023/01/17 08:20:22;;;;;;;16.85;7.70;;;;;;;-0.81;100.00;98689.53;5030452;28;20037;-68
2023/01/17 08:22:47;;;;;;;17.13;8.43;;;;;;;-0.80;100.00;98678.06;5030571;28;20040;-68
2023/01/17 08:25:13;;;;;;;18.98;8.57;;;;;;;-0.76;100.00;98681.13;5028582;28;20659;-68
2023/01/17 08:27:38;;;;;;;18.45;9.35;;;;;;;-0.70;100.00;98680.44;5024351;28;20032;-70
2023/01/17 08:30:05;;;;;;;18.63;9.07;;;;;;;-0.63;100.00;98685.75;5006263;28;20029;-69
2023/01/17 08:32:31;;;;;;;20.33;8.07;;;;;;;-0.61;100.00;98684.59;5024337;28;20049;-70
2023/01/17 08:34:56;;;;;;;19.88;8.13;;;;;;;-0.56;100.00;98689.28;5006984;28;20076;-67
2023/01/17 08:37:22;;;;;;;19.85;8.45;;;;;;;-0.51;100.00;98689.56;5024578;28;20465;-67
2023/01/17 08:39:48;;;;;;;19.83;8.75;;;;;;;-0.46;100.00;98690.66;5024658;28;20451;-67
2023/01/17 08:42:13;;;;;;;17.23;8.55;;;;;;;-0.41;100.00;98697.97;5024490;28;20025;-70
2023/01/17 08:44:39;;;;;;;17.48;8.48;;;;;;;-0.38;100.00;98699.44;5006835;28;20374;-68
2023/01/17 08:47:04;;;;;;;18.42;7.93;;;;;;;-0.33;100.00;98697.09;5024437;28;20033;-67
2023/01/17 08:49:30;;;;;;;17.85;8.60;;;;;;;-0.28;100.00;98699.97;5024655;28;20481;-68
2023/01/17 08:51:55;;;;;;;22.23;7.78;;;;;;;-0.22;100.00;98705.28;5024495;28;20124;-68
2023/01/17 08:54:21;;;;;;;24.15;10.40;;;;;;;-0.17;100.00;98703.97;5024571;28;20112;-67
2023/01/17 08:56:47;;;;;;;17.67;8.65;;;;;;;-0.15;100.00;98705.41;5025688;28;20064;-74
2023/01/17 08:59:13;;;;;;;16.40;8.95;;;;;;;-0.15;100.00;98705.41;5030011;28;20084;-72
2023/01/17 09:01:44;;;;;;;18.80;8.80;;;;;;;-0.12;100.00;98712.91;5029626;28;20042;-72
2023/01/17 09:04:14;;;;;;;20.63;11.30;;;;;;;-0.09;100.00;98704.66;5029957;28;20037;-72
2023/01/17 09:06:42;;;;;;;20.98;10.18;;;;;;;-0.01;100.00;98703.75;5029338;28;20037;-72
2023/01/17 09:09:12;;;;;;;18.65;8.57;;;;;;;0.04;100.00;98708.47;5029557;28;20098;-73
2023/01/17 09:11:37;;;;;;;23.08;9.02;;;;;;;0.05;100.00;98717.94;5029946;28;20042;-72
2023/01/17 09:14:03;;;;;;;22.38;11.20;;;;;;;0.02;100.00;98718.31;5029764;28;20116;-72
2023/01/17 09:16:29;;;;;;;18.83;9.00;;;;;;;-0.01;100.00;98714.25;5029814;28;20112;-72
2023/01/17 09:18:56;;;;;;;18.58;9.13;;;;;;;-0.02;100.00;98720.50;5029774;28;20131;-72
2023/01/17 09:21:21;;;;;;;18.30;9.38;;;;;;;-0.01;100.00;98725.53;5011865;28;20053;-72
2023/01/17 09:23:47;;;;;;;24.08;12.02;;;;;;;0.02;100.00;98726.97;5029439;28;20034;-72
2023/01/17 09:26:21;;;;;;;22.52;10.35;;;;;;;0.04;100.00;98729.44;5029627;28;20087;-72
2023/01/17 09:28:47;;;;;;;21.63;9.68;;;;;;;0.10;100.00;98728.69;5029280;28;20096;-72
2023/01/17 09:31:13;;;;;;;23.55;9.35;;;;;;;0.16;100.00;98722.75;5029541;28;20878;-72
2023/01/17 09:33:41;;;;;;;22.80;9.90;;;;;;;0.31;100.00;98736.63;5029671;28;20469;-72
2023/01/17 09:36:08;;;;;;;25.73;10.57;;;;;;;0.42;100.00;98733.56;5030119;28;20083;-72
2023/01/17 09:38:34;;;;;;;20.75;8.90;;;;;;;0.53;100.00;98731.47;5029818;28;20039;-72
2023/01/17 09:41:01;;;;;;;21.77;10.75;;;;;;;0.67;100.00;98735.84;5029394;28;20120;-72
2023/01/17 09:43:26;;;;;;;18.40;9.20;;;;;;;0.80;100.00;98735.97;5029303;28;20116;-72
2023/01/17 09:45:52;;;;;;;20.15;9.60;;;;;;;0.91;100.00;98747.00;5032995;28;20144;-72
2023/01/17 09:48:30;;;;;;;25.75;11.25;;;;;;;0.98;100.00;98740.00;5033238;28;20098;-72
2023/01/17 09:51:06;;;;;;;19.67;8.52;;;;;;;1.02;100.00;98749.94;5033434;28;20120;-72
2023/01/17 09:53:36;;;;;;;23.70;10.27;;;;;;;1.10;100.00;98743.75;5033321;28;20076;-72
2023/01/17 09:56:28;;;;;;;18.10;9.65;;;;;;;1.19;100.00;98744.44;5027701;28;20524;-71
2023/01/17 09:59:02;;;;;;;23.33;9.75;;;;;;;1.24;100.00;98747.31;5022412;28;20036;-72
2023/01/17 10:01:45;;;;;;;19.60;9.68;;;;;;;1.29;100.00;98743.13;5022431;28;20126;-73
2023/01/17 10:04:26;;;;;;;18.90;8.80;;;;;;;1.38;100.00;98749.06;5022785;28;20029;-73
2023/01/17 10:07:10;;;;;;;20.40;8.57;;;;;;;1.43;100.00;98738.78;5022859;28;20353;-73
2023/01/17 10:09:51;;;;;;;16.38;8.68;;;;;;;1.47;100.00;98749.75;5023025;28;20509;-72
2023/01/17 10:12:36;;;;;;;17.70;8.85;;;;;;;1.57;100.00;98747.56;5022904;28;20037;-73
2023/01/17 10:15:57;;;;;;;17.67;7.70;;;;;;;1.71;100.00;98744.06;5022781;28;20527;-73
2023/01/17 10:18:47;;;;;;;17.23;8.75;;;;;;;1.83;100.00;98743.53;4982304;28;20152;-73
2023/01/17 10:21:37;;;;;;;18.02;8.45;;;;;;;1.91;100.00;98751.25;5004841;28;20067;-73
2023/01/17 10:24:22;;;;;;;15.02;7.25;;;;;;;1.91;100.00;98746.00;5022407;28;20060;-73
2023/01/17 10:26:52;;;;;;;16.10;7.43;;;;;;;1.96;100.00;98744.44;5022472;28;20469;-72
2023/01/17 10:29:18;;;;;;;16.45;7.80;;;;;;;2.00;100.00;98741.41;5022536;28;20045;-73
2023/01/17 10:31:50;;;;;;;13.85;7.20;;;;;;;2.00;100.00;98739.59;5022869;28;20079;-73
2023/01/17 10:34:41;;;;;;;16.85;9.02;;;;;;;2.08;100.00;98736.81;5022413;28;20032;-73
2023/01/17 10:37:21;;;;;;;17.63;7.78;;;;;;;2.15;100.00;98742.13;5004186;28;20468;-73
2023/01/17 10:39:49;;;;;;;14.90;8.00;;;;;;;2.13;100.00;98742.28;5022091;28;20052;-73
2023/01/17 10:42:17;;;;;;;19.70;8.32;;;;;;;2.18;100.00;98739.91;5026002;28;20103;-71
2023/01/17 10:44:49;;;;;;;18.33;7.30;;;;;;;2.24;100.00;98742.75;5026518;28;20033;-70
2023/01/17 10:47:20;;;;;;;24.13;9.82;;;;;;;2.29;100.00;98745.63;5026296;28;20057;-70
2023/01/17 10:49:51;;;;;;;14.38;7.40;;;;;;;2.33;100.00;98752.09;5026494;28;20029;-70
2023/01/17 10:52:38;;;;;;;18.15;7.30;;;;;;;2.43;100.00;98752.56;5026696;28;20021;-70
2023/01/17 10:55:09;;;;;;;16.00;7.68;;;;;;;2.48;100.00;98744.06;5026409;28;20029;-70
2023/01/17 10:57:43;;;;;;;17.70;7.60;;;;;;;2.51;100.00;98743.69;5025472;28;20113;-70
2023/01/17 11:00:33;;;;;;;14.32;7.00;;;;;;;2.53;100.00;98742.47;5025872;28;20022;-70
2023/01/17 11:02:59;;;;;;;17.17;7.18;;;;;;;2.60;100.00;98739.88;5026059;28;20036;-70
2023/01/17 11:05:27;;;;;;;10.85;6.00;;;;;;;2.75;100.00;98745.81;5025795;28;20041;-70
2023/01/17 11:08:03;;;;;;;15.18;8.05;;;;;;;2.92;100.00;98738.34;5025826;28;20025;-70
2023/01/17 11:10:39;;;;;;;24.45;8.85;;;;;;;3.02;100.00;98733.50;5025262;28;20025;-71
2023/01/17 11:13:37;;;;;;;15.60;6.97;;;;;;;3.23;100.00;98736.97;5025661;28;20036;-71
2023/01/17 11:16:15;;;;;;;16.35;6.60;;;;;;;3.32;100.00;98734.97;5018682;28;20048;-71
2023/01/17 11:18:41;;;;;;;16.83;8.75;;;;;;;3.35;100.00;98724.00;5025606;28;20033;-70
2023/01/17 11:21:19;;;;;;;11.90;5.25;;;;;;;3.46;100.00;98728.69;5008530;28;20069;-75
2023/01/17 11:23:48;;;;;;;15.15;7.93;;;;;;;3.55;100.00;98731.94;5025310;28;20108;-72
2023/01/17 11:26:27;;;;;;;14.15;6.65;;;;;;;3.57;100.00;98735.97;5026119;28;20067;-73
2023/01/17 11:29:13;;;;;;;16.35;7.32;;;;;;;3.58;100.00;98734.16;5025939;28;20037;-70
2023/01/17 11:31:39;;;;;;;11.93;5.85;;;;;;;3.52;100.00;98730.50;5025674;28;20025;-72
2023/01/17 11:34:22;;;;;;;10.23;5.40;;;;;;;3.54;100.00;98733.75;5025947;28;20032;-69
2023/01/17 11:36:49;;;;;;;14.20;5.38;;;;;;;3.55;100.00;98730.09;5025291;28;20678;-72
2023/01/17 11:39:17;;;;;;;9.60;4.80;;;;;;;3.61;100.00;98739.00;5026060;28;20029;-69
2023/01/17 11:41:43;;;;;;;14.45;6.13;;;;;;;3.67;100.00;98725.03;5025800;28;20429;-71
2023/01/17 11:44:25;;;;;;;13.68;6.03;;;;;;;3.72;100.00;98727.84;5025385;28;20137;-69
2023/01/17 11:47:20;;;;;;;;;;;;;;;3.77;100.00;98721.97;5025223;28;20061;-72
2023/01/17 11:49:47;;;;;;;13.95;7.53;;;;;;;3.75;100.00;98732.72;5005654;28;19917;-69
2023/01/17 11:52:30;;;;;;;11.57;5.13;;;;;;;3.66;100.00;98723.41;5025504;28;20021;-69
2023/01/17 11:54:56;;;;;;;11.65;4.95;;;;;;;3.61;100.00;98726.63;5025279;28;20036;-69
2023/01/17 11:57:25;;;;;;;8.68;3.95;;;;;;;3.64;100.00;98725.41;5025306;28;20029;-68
2023/01/17 12:00:25;;;;;;;11.85;5.03;;;;;;;3.61;98.50;98721.38;5025521;28;20026;-69
2023/01/17 12:02:53;;;;;;;9.57;4.40;;;;;;;3.59;98.54;98722.56;5017771;28;20097;-69
2023/01/17 12:05:53;;;;;;;10.57;4.75;;;;;;;3.59;98.11;98719.94;5007475;28;20033;-69
2023/01/17 12:08:37;;;;;;;8.48;4.80;;;;;;;3.51;99.08;98720.97;5024365;28;20049;-73
2023/01/17 12:11:35;;;;;;;10.63;4.40;;;;;;;3.46;99.66;98720.78;5024714;28;20120;-64
2023/01/17 12:14:12;;;;;;;9.57;4.32;;;;;;;3.43;98.29;98716.72;4970851;28;20037;-64
2023/01/17 12:16:56;;;;;;;8.38;4.78;;;;;;;3.49;98.31;98723.81;5024989;28;20082;-65
2023/01/17 12:19:47;;;;;;;9.00;4.13;;;;;;;3.58;98.01;98723.59;5025288;28;20091;-65
2023/01/17 12:22:42;;;;;;;11.05;4.00;;;;;;;3.64;97.59;98717.50;5024650;28;20110;-65
2023/01/17 12:25:26;;;;;;;9.18;3.90;;;;;;;3.66;96.18;98718.94;5024734;28;20087;-65
2023/01/17 12:27:51;;;;;;;11.10;4.07;;;;;;;3.67;95.81;98719.75;5030710;28;20025;-64
2023/01/17 12:30:50;;;;;;;11.07;4.22;;;;;;;3.70;92.29;98714.06;5030578;28;20055;-64
2023/01/17 12:33:22;;;;;;;4.45;2.33;;;;;;;3.68;89.98;98716.91;5030562;28;20029;-64
2023/01/17 12:36:01;;;;;;;2.92;2.15;;;;;;;3.67;86.61;98719.75;5030511;28;20370;-65
2023/01/17 12:38:35;;;;;;;5.28;2.42;;;;;;;3.63;86.88;98711.44;5030498;28;20029;-64
2023/01/17 12:41:29;;;;;;;4.15;2.17;;;;;;;3.62;84.79;98711.66;5030321;28;20116;-65
2023/01/17 12:43:58;;;;;;;6.43;2.50;;;;;;;3.66;88.33;98704.94;5019505;28;20497;-64
2023/01/17 12:46:47;;;;;;;7.35;2.25;;;;;;;3.59;86.17;98694.41;5030341;28;20043;-64
2023/01/17 12:49:25;;;;;;;5.25;2.35;;;;;;;3.65;86.35;98708.59;5030251;28;20982;-64
2023/01/17 12:51:58;;;;;;;2.45;1.70;;;;;;;3.66;82.77;98710.22;5030297;28;20163;-65
2023/01/17 12:54:35;;;;;;;5.45;2.55;;;;;;;3.67;83.05;98703.94;5030278;28;20389;-65
2023/01/17 12:57:13;;;;;;;6.40;2.10;;;;;;;3.68;83.04;98705.56;5030285;28;20099;-65
2023/01/17 12:59:53;;;;;;;4.22;1.98;;;;;;;3.69;84.24;98704.53;5023399;28;20025;-65
2023/01/17 13:02:48;;;;;;;4.22;1.90;;;;;;;3.69;84.03;98699.25;5024202;28;20040;-65
2023/01/17 13:05:22;;;;;;;4.50;1.83;;;;;;;3.65;81.01;98700.69;5026112;28;20026;-65